sensor_id;sensor_type;location;lat;lon;timestamp;pressure;altitude;pressure_sealevel;temperature;humidity
3812;BME280;1921;49.368;11.068;2023-04-21T00:01:01;97285.75;;;9.47;85.25
3812;BME280;1921;49.368;11.068;2023-04-21T00:03:31;97339.75;;;9.82;85.11
3812;BME280;1921;49.368;11.068;2023-04-21T00:05:58;97321.78;;;9.20;89.07
3812;BME280;1921;49.368;11.068;2023-04-21T00:08:24;97314.72;;;9.06;89.61
3812;BME280;1921;49.368;11.068;2023-04-21T00:10:52;97319.38;;;9.33;87.89
3812;BME280;1921;49.368;11.068;2023-04-21T00:13:41;97286.44;;;8.65;91.65
3812;BME280;1921;49.368;11.068;2023-04-21T00:16:07;97323.22;;;8.54;94.24
3812;BME280;1921;49.368;11.068;2023-04-21T00:18:33;97284.06;;;8.55;92.65
3812;BME280;1921;49.368;11.068;2023-04-21T00:20:58;97293.53;;;8.71;90.98
3812;BME280;1921;49.368;11.068;2023-04-21T00:23:24;97332.22;;;9.12;89.63
3812;BME280;1921;49.368;11.068;2023-04-21T00:25:53;97313.28;;;9.03;88.97
3812;BME280;1921;49.368;11.068;2023-04-21T00:28:19;97239.63;;;8.42;90.76
3812;BME280;1921;49.368;11.068;2023-04-21T00:30:44;97285.53;;;8.50;92.73
3812;BME280;1921;49.368;11.068;2023-04-21T00:33:10;97298.97;;;8.61;91.87
3812;BME280;1921;49.368;11.068;2023-04-21T00:35:36;97300.75;;;8.61;91.58
3812;BME280;1921;49.368;11.068;2023-04-21T00:38:02;97253.25;;;8.13;94.08
3812;BME280;1921;49.368;11.068;2023-04-21T00:40:27;97286.19;;;8.13;95.58
3812;BME280;1921;49.368;11.068;2023-04-21T00:42:53;97286.63;;;8.24;94.37
3812;BME280;1921;49.368;11.068;2023-04-21T00:45:19;97320.19;;;8.42;93.68
3812;BME280;1921;49.368;11.068;2023-04-21T00:47:44;97246.56;;;7.88;92.80
3812;BME280;1921;49.368;11.068;2023-04-21T00:50:11;97308.34;;;8.31;92.99
3812;BME280;1921;49.368;11.068;2023-04-21T00:52:41;97262.94;;;7.96;92.42
3812;BME280;1921;49.368;11.068;2023-04-21T00:55:08;97291.75;;;8.09;92.86
3812;BME280;1921;49.368;11.068;2023-04-21T00:57:35;97294.16;;;8.11;92.88
3812;BME280;1921;49.368;11.068;2023-04-21T01:00:05;97308.56;;;8.22;92.33
3812;BME280;1921;49.368;11.068;2023-04-21T01:02:34;97306.16;;;8.12;92.37
3812;BME280;1921;49.368;11.068;2023-04-21T01:05:00;97286.78;;;7.92;92.16
3812;BME280;1921;49.368;11.068;2023-04-21T01:07:27;97312.53;;;8.09;92.15
3812;BME280;1921;49.368;11.068;2023-04-21T01:09:53;97303.00;;;8.02;92.39
3812;BME280;1921;49.368;11.068;2023-04-21T01:12:19;97340.88;;;8.19;92.77
3812;BME280;1921;49.368;11.068;2023-04-21T01:14:44;97303.66;;;7.88;91.86
3812;BME280;1921;49.368;11.068;2023-04-21T01:17:10;97338.34;;;8.03;92.36
3812;BME280;1921;49.368;11.068;2023-04-21T01:19:39;97276.50;;;7.67;92.41
3812;BME280;1921;49.368;11.068;2023-04-21T01:22:09;97341.94;;;8.02;92.79
3812;BME280;1921;49.368;11.068;2023-04-21T01:24:37;97316.66;;;7.88;92.47
3812;BME280;1921;49.368;11.068;2023-04-21T01:27:08;97284.63;;;7.56;92.67
3812;BME280;1921;49.368;11.068;2023-04-21T01:29:35;97214.41;;;7.02;92.74
3812;BME280;1921;49.368;11.068;2023-04-21T01:32:11;97279.16;;;7.43;93.23
3812;BME280;1921;49.368;11.068;2023-04-21T01:34:39;97397.41;;;8.01;93.70
3812;BME280;1921;49.368;11.068;2023-04-21T01:37:08;97318.34;;;7.64;94.41
3812;BME280;1921;49.368;11.068;2023-04-21T01:39:41;97303.75;;;7.63;95.49
3812;BME280;1921;49.368;11.068;2023-04-21T01:42:08;97278.78;;;7.54;95.34
3812;BME280;1921;49.368;11.068;2023-04-21T01:44:34;97321.56;;;7.74;94.91
3812;BME280;1921;49.368;11.068;2023-04-21T01:47:00;97287.25;;;7.48;95.37
3812;BME280;1921;49.368;11.068;2023-04-21T01:49:26;97207.25;;;7.04;94.86
3812;BME280;1921;49.368;11.068;2023-04-21T01:51:51;97299.06;;;7.50;94.79
3812;BME280;1921;49.368;11.068;2023-04-21T01:54:17;97268.13;;;7.33;94.27
3812;BME280;1921;49.368;11.068;2023-04-21T01:56:43;97202.25;;;6.86;94.50
3812;BME280;1921;49.368;11.068;2023-04-21T01:59:09;97200.66;;;6.69;94.08
3812;BME280;1921;49.368;11.068;2023-04-21T02:01:34;97303.81;;;7.31;94.24
3812;BME280;1921;49.368;11.068;2023-04-21T02:04:02;96986.19;;;5.18;93.76
3812;BME280;1921;49.368;11.068;2023-04-21T02:06:28;97323.09;;;7.36;93.81
3812;BME280;1921;49.368;11.068;2023-04-21T02:08:54;97069.16;;;5.65;93.33
3812;BME280;1921;49.368;11.068;2023-04-21T02:11:20;97229.00;;;6.54;93.67
3812;BME280;1921;49.368;11.068;2023-04-21T02:13:51;97284.38;;;6.86;93.84
3812;BME280;1921;49.368;11.068;2023-04-21T02:16:17;97225.72;;;6.36;94.17
3812;BME280;1921;49.368;11.068;2023-04-21T02:18:45;97239.47;;;6.28;94.37
3812;BME280;1921;49.368;11.068;2023-04-21T02:21:11;97072.47;;;5.25;94.59
3812;BME280;1921;49.368;11.068;2023-04-21T02:23:37;97298.63;;;6.65;94.99
3812;BME280;1921;49.368;11.068;2023-04-21T02:26:03;97227.66;;;6.17;95.43
3812;BME280;1921;49.368;11.068;2023-04-21T02:28:29;97360.34;;;6.94;94.93
3812;BME280;1921;49.368;11.068;2023-04-21T02:30:56;97339.75;;;6.77;95.29
3812;BME280;1921;49.368;11.068;2023-04-21T02:33:21;97222.91;;;6.05;95.88
3812;BME280;1921;49.368;11.068;2023-04-21T02:35:47;97269.13;;;6.34;95.46
3812;BME280;1921;49.368;11.068;2023-04-21T02:38:13;97247.72;;;6.15;95.92
3812;BME280;1921;49.368;11.068;2023-04-21T02:40:39;97271.38;;;6.29;95.72
3812;BME280;1921;49.368;11.068;2023-04-21T02:43:05;97308.94;;;6.49;96.63
3812;BME280;1921;49.368;11.068;2023-04-21T02:45:31;97318.03;;;6.61;96.40
3812;BME280;1921;49.368;11.068;2023-04-21T02:47:57;97284.16;;;6.38;96.78
3812;BME280;1921;49.368;11.068;2023-04-21T02:50:24;97286.09;;;6.44;97.11
3812;BME280;1921;49.368;11.068;2023-04-21T02:52:50;97272.69;;;6.41;97.33
3812;BME280;1921;49.368;11.068;2023-04-21T02:55:15;97318.56;;;6.65;97.60
3812;BME280;1921;49.368;11.068;2023-04-21T02:57:42;97328.91;;;6.81;98.13
3812;BME280;1921;49.368;11.068;2023-04-21T03:00:08;97325.69;;;6.79;97.79
3812;BME280;1921;49.368;11.068;2023-04-21T03:02:37;97296.69;;;6.59;97.62
3812;BME280;1921;49.368;11.068;2023-04-21T03:05:03;97170.91;;;5.90;97.89
3812;BME280;1921;49.368;11.068;2023-04-21T03:07:29;97287.25;;;6.58;98.33
3812;BME280;1921;49.368;11.068;2023-04-21T03:09:54;97177.88;;;5.89;97.55
3812;BME280;1921;49.368;11.068;2023-04-21T03:12:20;97338.63;;;6.87;97.64
3812;BME280;1921;49.368;11.068;2023-04-21T03:14:46;97175.44;;;5.88;97.79
3812;BME280;1921;49.368;11.068;2023-04-21T03:17:12;97329.53;;;6.59;98.90
3812;BME280;1921;49.368;11.068;2023-04-21T03:19:37;97321.59;;;6.52;98.92
3812;BME280;1921;49.368;11.068;2023-04-21T03:22:03;97259.34;;;6.11;99.08
3812;BME280;1921;49.368;11.068;2023-04-21T03:24:29;97280.06;;;6.19;99.32
3812;BME280;1921;49.368;11.068;2023-04-21T03:26:55;97245.94;;;5.82;99.82
3812;BME280;1921;49.368;11.068;2023-04-21T03:29:21;97242.47;;;5.91;99.32
3812;BME280;1921;49.368;11.068;2023-04-21T03:31:47;97275.22;;;6.16;99.54
3812;BME280;1921;49.368;11.068;2023-04-21T03:34:13;97287.56;;;6.39;99.31
3812;BME280;1921;49.368;11.068;2023-04-21T03:36:39;97326.16;;;6.66;99.07
3812;BME280;1921;49.368;11.068;2023-04-21T03:39:05;97275.88;;;6.27;99.47
3812;BME280;1921;49.368;11.068;2023-04-21T03:41:32;97275.22;;;6.25;98.85
3812;BME280;1921;49.368;11.068;2023-04-21T03:43:58;97285.13;;;6.37;98.99
3812;BME280;1921;49.368;11.068;2023-04-21T03:46:24;97303.25;;;6.45;98.72
3812;BME280;1921;49.368;11.068;2023-04-21T03:48:50;97315.09;;;6.48;98.30
3812;BME280;1921;49.368;11.068;2023-04-21T03:51:16;97289.31;;;6.30;97.73
3812;BME280;1921;49.368;11.068;2023-04-21T03:53:42;97278.78;;;6.15;97.91
3812;BME280;1921;49.368;11.068;2023-04-21T03:56:07;97335.19;;;6.46;97.28
3812;BME280;1921;49.368;11.068;2023-04-21T03:58:34;97264.78;;;5.92;96.98
3812;BME280;1921;49.368;11.068;2023-04-21T04:01:00;97320.69;;;6.27;96.88
3812;BME280;1921;49.368;11.068;2023-04-21T04:03:26;97310.66;;;6.16;96.62
3812;BME280;1921;49.368;11.068;2023-04-21T04:05:51;97298.28;;;6.02;96.72
3812;BME280;1921;49.368;11.068;2023-04-21T04:08:17;97274.41;;;5.82;96.57
3812;BME280;1921;49.368;11.068;2023-04-21T04:10:43;97316.59;;;6.08;96.69
3812;BME280;1921;49.368;11.068;2023-04-21T04:13:09;97287.84;;;5.85;96.89
3812;BME280;1921;49.368;11.068;2023-04-21T04:15:35;97301.81;;;5.92;96.84
3812;BME280;1921;49.368;11.068;2023-04-21T04:18:00;97174.16;;;5.07;97.26
3812;BME280;1921;49.368;11.068;2023-04-21T04:20:26;97286.06;;;5.78;97.47
3812;BME280;1921;49.368;11.068;2023-04-21T04:22:52;97325.94;;;6.01;97.75
3812;BME280;1921;49.368;11.068;2023-04-21T04:25:18;97353.19;;;6.13;98.18
3812;BME280;1921;49.368;11.068;2023-04-21T04:27:44;97333.56;;;6.03;98.22
3812;BME280;1921;49.368;11.068;2023-04-21T04:30:11;97315.91;;;5.98;99.24
3812;BME280;1921;49.368;11.068;2023-04-21T04:32:37;97280.91;;;5.86;99.64
3812;BME280;1921;49.368;11.068;2023-04-21T04:35:05;97336.84;;;6.13;100.00
3812;BME280;1921;49.368;11.068;2023-04-21T04:37:31;97324.38;;;5.82;100.00
3812;BME280;1921;49.368;11.068;2023-04-21T04:39:59;97297.91;;;5.62;100.00
3812;BME280;1921;49.368;11.068;2023-04-21T04:42:25;97329.97;;;5.70;99.92
3812;BME280;1921;49.368;11.068;2023-04-21T04:44:54;97344.13;;;5.57;100.00
3812;BME280;1921;49.368;11.068;2023-04-21T04:47:20;97340.66;;;5.23;100.00
3812;BME280;1921;49.368;11.068;2023-04-21T04:49:46;97265.28;;;4.48;100.00
3812;BME280;1921;49.368;11.068;2023-04-21T04:52:12;97311.16;;;4.72;100.00
3812;BME280;1921;49.368;11.068;2023-04-21T04:54:37;97345.75;;;5.14;100.00
3812;BME280;1921;49.368;11.068;2023-04-21T04:57:03;97298.22;;;5.07;100.00
3812;BME280;1921;49.368;11.068;2023-04-21T04:59:29;97353.00;;;5.55;100.00
3812;BME280;1921;49.368;11.068;2023-04-21T05:01:56;97306.31;;;5.30;100.00
3812;BME280;1921;49.368;11.068;2023-04-21T05:04:22;97340.28;;;5.61;100.00
3812;BME280;1921;49.368;11.068;2023-04-21T05:06:48;97323.78;;;5.62;100.00
3812;BME280;1921;49.368;11.068;2023-04-21T05:09:14;97306.00;;;5.59;100.00
3812;BME280;1921;49.368;11.068;2023-04-21T05:11:41;97343.09;;;5.76;100.00
3812;BME280;1921;49.368;11.068;2023-04-21T05:14:06;97327.56;;;5.76;100.00
3812;BME280;1921;49.368;11.068;2023-04-21T05:16:32;97226.13;;;5.22;100.00
3812;BME280;1921;49.368;11.068;2023-04-21T05:19:03;97294.00;;;5.84;100.00
3812;BME280;1921;49.368;11.068;2023-04-21T05:21:29;97261.72;;;5.97;100.00
3812;BME280;1921;49.368;11.068;2023-04-21T05:23:57;97288.69;;;6.36;100.00
3812;BME280;1921;49.368;11.068;2023-04-21T05:26:25;97314.34;;;6.72;100.00
3812;BME280;1921;49.368;11.068;2023-04-21T05:28:52;97207.91;;;6.16;100.00
3812;BME280;1921;49.368;11.068;2023-04-21T05:31:18;97338.66;;;7.20;99.72
3812;BME280;1921;49.368;11.068;2023-04-21T05:33:44;97289.09;;;7.15;99.00
3812;BME280;1921;49.368;11.068;2023-04-21T05:36:10;97270.25;;;7.13;98.45
3812;BME280;1921;49.368;11.068;2023-04-21T05:38:37;97206.63;;;6.94;98.37
3812;BME280;1921;49.368;11.068;2023-04-21T05:41:03;97299.22;;;7.65;98.46
3812;BME280;1921;49.368;11.068;2023-04-21T05:43:29;97336.13;;;8.39;100.00
3812;BME280;1921;49.368;11.068;2023-04-21T05:45:59;97332.81;;;8.99;97.99
3812;BME280;1921;49.368;11.068;2023-04-21T05:48:24;97327.47;;;9.38;94.34
3812;BME280;1921;49.368;11.068;2023-04-21T05:50:50;97365.78;;;9.97;85.77
3812;BME280;1921;49.368;11.068;2023-04-21T05:53:16;97347.81;;;10.17;84.56
3812;BME280;1921;49.368;11.068;2023-04-21T05:55:42;97372.78;;;10.56;83.78
3812;BME280;1921;49.368;11.068;2023-04-21T05:58:08;97354.13;;;10.73;84.26
3812;BME280;1921;49.368;11.068;2023-04-21T06:00:33;97301.75;;;10.54;83.32
3812;BME280;1921;49.368;11.068;2023-04-21T06:02:59;97282.44;;;10.48;82.32
3812;BME280;1921;49.368;11.068;2023-04-21T06:05:25;97325.41;;;10.88;81.57
3812;BME280;1921;49.368;11.068;2023-04-21T06:07:51;97347.22;;;11.02;80.82
3812;BME280;1921;49.368;11.068;2023-04-21T06:10:19;97379.91;;;11.19;80.03
3812;BME280;1921;49.368;11.068;2023-04-21T06:12:45;97385.28;;;11.18;79.34
3812;BME280;1921;49.368;11.068;2023-04-21T06:15:11;97259.31;;;10.38;78.69
3812;BME280;1921;49.368;11.068;2023-04-21T06:17:37;97321.53;;;10.63;76.29
3812;BME280;1921;49.368;11.068;2023-04-21T06:20:03;97325.69;;;10.42;78.71
3812;BME280;1921;49.368;11.068;2023-04-21T06:22:28;97333.31;;;10.80;79.43
3812;BME280;1921;49.368;11.068;2023-04-21T06:24:54;97339.94;;;10.97;77.60
3812;BME280;1921;49.368;11.068;2023-04-21T06:27:20;97322.63;;;10.54;77.08
3812;BME280;1921;49.368;11.068;2023-04-21T06:29:46;97329.50;;;10.97;79.46
3812;BME280;1921;49.368;11.068;2023-04-21T06:32:12;97294.34;;;10.93;79.12
3812;BME280;1921;49.368;11.068;2023-04-21T06:34:38;97371.38;;;11.81;76.92
3812;BME280;1921;49.368;11.068;2023-04-21T06:37:12;97341.22;;;12.13;75.70
3812;BME280;1921;49.368;11.068;2023-04-21T06:39:38;97275.59;;;12.56;74.42
3812;BME280;1921;49.368;11.068;2023-04-21T06:42:04;97296.84;;;13.54;73.70
3812;BME280;1921;49.368;11.068;2023-04-21T06:44:30;97298.03;;;13.12;68.84
3812;BME280;1921;49.368;11.068;2023-04-21T06:46:56;97349.72;;;14.16;67.02
3812;BME280;1921;49.368;11.068;2023-04-21T06:49:22;97323.25;;;14.37;65.54
3812;BME280;1921;49.368;11.068;2023-04-21T06:51:48;97313.31;;;14.84;63.60
3812;BME280;1921;49.368;11.068;2023-04-21T06:54:14;97278.69;;;14.69;61.85
3812;BME280;1921;49.368;11.068;2023-04-21T06:56:39;97293.91;;;14.92;60.93
3812;BME280;1921;49.368;11.068;2023-04-21T06:59:08;97349.38;;;13.99;66.41
3812;BME280;1921;49.368;11.068;2023-04-21T07:01:34;97294.38;;;13.79;63.76
3812;BME280;1921;49.368;11.068;2023-04-21T07:03:59;97328.75;;;14.16;65.11
3812;BME280;1921;49.368;11.068;2023-04-21T07:06:26;97311.16;;;14.36;64.39
3812;BME280;1921;49.368;11.068;2023-04-21T07:08:51;97297.16;;;13.91;64.52
3812;BME280;1921;49.368;11.068;2023-04-21T07:11:17;97342.53;;;14.05;67.53
3812;BME280;1921;49.368;11.068;2023-04-21T07:13:43;97301.44;;;14.37;65.46
3812;BME280;1921;49.368;11.068;2023-04-21T07:16:09;97359.22;;;15.13;63.15
3812;BME280;1921;49.368;11.068;2023-04-21T07:18:35;97202.69;;;14.56;62.12
3812;BME280;1921;49.368;11.068;2023-04-21T07:21:00;97343.47;;;15.88;58.99
3812;BME280;1921;49.368;11.068;2023-04-21T07:23:26;97290.06;;;15.69;60.08
3812;BME280;1921;49.368;11.068;2023-04-21T07:25:52;97354.16;;;16.11;59.88
3812;BME280;1921;49.368;11.068;2023-04-21T07:28:18;97258.09;;;16.09;59.00
3812;BME280;1921;49.368;11.068;2023-04-21T07:30:44;97232.00;;;15.71;56.07
3812;BME280;1921;49.368;11.068;2023-04-21T07:33:10;97338.00;;;15.89;59.17
3812;BME280;1921;49.368;11.068;2023-04-21T07:35:37;97304.56;;;16.15;57.20
3812;BME280;1921;49.368;11.068;2023-04-21T07:38:03;97348.19;;;13.82;66.29
3812;BME280;1921;49.368;11.068;2023-04-21T07:40:28;97329.19;;;14.64;65.81
3812;BME280;1921;49.368;11.068;2023-04-21T07:42:55;97329.53;;;15.38;63.07
3812;BME280;1921;49.368;11.068;2023-04-21T07:45:21;97302.50;;;16.17;59.22
3812;BME280;1921;49.368;11.068;2023-04-21T07:47:46;97320.91;;;16.17;58.47
3812;BME280;1921;49.368;11.068;2023-04-21T07:50:12;97300.63;;;16.73;56.56
3812;BME280;1921;49.368;11.068;2023-04-21T07:52:38;97339.25;;;14.74;63.31
3812;BME280;1921;49.368;11.068;2023-04-21T07:55:04;97308.44;;;15.44;62.10
3812;BME280;1921;49.368;11.068;2023-04-21T07:57:30;97309.84;;;16.45;58.36
3812;BME280;1921;49.368;11.068;2023-04-21T07:59:58;97215.47;;;16.49;55.91
3812;BME280;1921;49.368;11.068;2023-04-21T08:02:24;97288.84;;;17.40;53.73
3812;BME280;1921;49.368;11.068;2023-04-21T08:04:50;97305.03;;;18.02;53.20
3812;BME280;1921;49.368;11.068;2023-04-21T08:07:16;97305.31;;;18.18;51.84
3812;BME280;1921;49.368;11.068;2023-04-21T08:09:42;97308.03;;;18.75;50.60
3812;BME280;1921;49.368;11.068;2023-04-21T08:12:08;97317.31;;;19.06;49.72
3812;BME280;1921;49.368;11.068;2023-04-21T08:14:33;97332.47;;;19.95;46.95
3812;BME280;1921;49.368;11.068;2023-04-21T08:16:59;97296.91;;;19.52;46.54
3812;BME280;1921;49.368;11.068;2023-04-21T08:19:25;97288.72;;;19.53;47.38
3812;BME280;1921;49.368;11.068;2023-04-21T08:21:51;97324.81;;;20.59;44.89
3812;BME280;1921;49.368;11.068;2023-04-21T08:24:16;97296.22;;;20.61;44.43
3812;BME280;1921;49.368;11.068;2023-04-21T08:26:42;97284.81;;;20.16;44.44
3812;BME280;1921;49.368;11.068;2023-04-21T08:29:08;97291.53;;;20.24;43.33
3812;BME280;1921;49.368;11.068;2023-04-21T08:31:35;97258.78;;;20.52;41.72
3812;BME280;1921;49.368;11.068;2023-04-21T08:34:01;97333.63;;;20.91;42.11
3812;BME280;1921;49.368;11.068;2023-04-21T08:36:28;97294.22;;;20.46;41.83
3812;BME280;1921;49.368;11.068;2023-04-21T08:38:53;97300.28;;;20.68;42.32
3812;BME280;1921;49.368;11.068;2023-04-21T08:41:20;97290.88;;;20.83;41.72
3812;BME280;1921;49.368;11.068;2023-04-21T08:43:48;97291.22;;;21.23;41.54
3812;BME280;1921;49.368;11.068;2023-04-21T08:46:13;97263.47;;;20.72;42.35
3812;BME280;1921;49.368;11.068;2023-04-21T08:48:40;97305.94;;;21.68;40.74
3812;BME280;1921;49.368;11.068;2023-04-21T08:51:07;97279.75;;;22.40;39.29
3812;BME280;1921;49.368;11.068;2023-04-21T08:53:37;97297.72;;;22.95;37.94
3812;BME280;1921;49.368;11.068;2023-04-21T08:56:03;97296.13;;;23.15;37.55
3812;BME280;1921;49.368;11.068;2023-04-21T08:58:29;97265.75;;;22.80;37.68
3812;BME280;1921;49.368;11.068;2023-04-21T09:00:55;97238.84;;;22.46;37.73
3812;BME280;1921;49.368;11.068;2023-04-21T09:03:26;97249.44;;;22.41;38.12
3812;BME280;1921;49.368;11.068;2023-04-21T09:06:01;97171.88;;;21.66;38.88
3812;BME280;1921;49.368;11.068;2023-04-21T09:08:28;97258.03;;;21.95;39.38
3812;BME280;1921;49.368;11.068;2023-04-21T09:10:56;97267.09;;;20.88;41.19
3812;BME280;1921;49.368;11.068;2023-04-21T09:13:32;97270.44;;;21.10;42.09
3812;BME280;1921;49.368;11.068;2023-04-21T09:15:59;97245.63;;;20.40;43.13
3812;BME280;1921;49.368;11.068;2023-04-21T09:18:27;97295.03;;;21.01;41.99
3812;BME280;1921;49.368;11.068;2023-04-21T09:21:15;97276.91;;;21.19;41.46
3812;BME280;1921;49.368;11.068;2023-04-21T09:23:50;97269.03;;;21.30;40.47
3812;BME280;1921;49.368;11.068;2023-04-21T09:26:18;97296.13;;;21.32;40.90
3812;BME280;1921;49.368;11.068;2023-04-21T09:28:46;97291.88;;;21.73;40.41
3812;BME280;1921;49.368;11.068;2023-04-21T09:31:22;97196.47;;;20.77;40.49
3812;BME280;1921;49.368;11.068;2023-04-21T09:33:56;97304.34;;;21.72;41.21
3812;BME280;1921;49.368;11.068;2023-04-21T09:36:25;97270.88;;;21.66;39.15
3812;BME280;1921;49.368;11.068;2023-04-21T09:39:00;97274.31;;;21.62;38.89
3812;BME280;1921;49.368;11.068;2023-04-21T09:41:26;97265.00;;;19.97;41.83
3812;BME280;1921;49.368;11.068;2023-04-21T09:43:52;97289.81;;;19.74;42.58
3812;BME280;1921;49.368;11.068;2023-04-21T09:46:19;97292.72;;;19.73;42.62
3812;BME280;1921;49.368;11.068;2023-04-21T09:48:46;97240.84;;;19.94;42.14
3812;BME280;1921;49.368;11.068;2023-04-21T09:51:15;97269.38;;;20.52;42.17
3812;BME280;1921;49.368;11.068;2023-04-21T09:53:43;97222.47;;;20.31;41.10
3812;BME280;1921;49.368;11.068;2023-04-21T09:56:14;97279.50;;;19.73;43.41
3812;BME280;1921;49.368;11.068;2023-04-21T09:58:46;97257.16;;;20.78;41.02
3812;BME280;1921;49.368;11.068;2023-04-21T10:01:14;97245.31;;;18.82;45.22
3812;BME280;1921;49.368;11.068;2023-04-21T10:03:43;97268.00;;;19.84;42.99
3812;BME280;1921;49.368;11.068;2023-04-21T10:06:11;97270.38;;;20.46;41.41
3812;BME280;1921;49.368;11.068;2023-04-21T10:08:37;97236.22;;;18.49;45.22
3812;BME280;1921;49.368;11.068;2023-04-21T10:11:03;97251.66;;;18.69;44.79
3812;BME280;1921;49.368;11.068;2023-04-21T10:13:30;97256.38;;;20.29;42.20
3812;BME280;1921;49.368;11.068;2023-04-21T10:16:05;97275.56;;;21.22;39.74
3812;BME280;1921;49.368;11.068;2023-04-21T10:18:42;97239.38;;;21.80;38.83
3812;BME280;1921;49.368;11.068;2023-04-21T10:21:10;97273.09;;;22.37;37.66
3812;BME280;1921;49.368;11.068;2023-04-21T10:23:44;97280.72;;;23.12;37.22
3812;BME280;1921;49.368;11.068;2023-04-21T10:26:25;97283.06;;;23.79;36.13
3812;BME280;1921;49.368;11.068;2023-04-21T10:29:02;97236.44;;;23.87;34.57
3812;BME280;1921;49.368;11.068;2023-04-21T10:47:47;97255.56;;;24.04;34.27
3812;BME280;1921;49.368;11.068;2023-04-21T10:50:20;97237.50;;;23.81;34.48
3812;BME280;1921;49.368;11.068;2023-04-21T10:53:06;97199.03;;;23.02;35.38
3812;BME280;1921;49.368;11.068;2023-04-21T10:55:33;97199.50;;;22.38;36.24
3812;BME280;1921;49.368;11.068;2023-04-21T10:58:02;97221.09;;;23.02;35.20
3812;BME280;1921;49.368;11.068;2023-04-21T11:00:28;97231.16;;;23.46;34.66
3812;BME280;1921;49.368;11.068;2023-04-21T11:03:02;97256.22;;;22.99;35.84
3812;BME280;1921;49.368;11.068;2023-04-21T11:05:37;97193.97;;;22.75;35.93
3812;BME280;1921;49.368;11.068;2023-04-21T11:08:14;97183.25;;;22.19;36.62
3812;BME280;1921;49.368;11.068;2023-04-21T11:10:49;97231.75;;;23.02;36.26
3812;BME280;1921;49.368;11.068;2023-04-21T11:13:15;97170.56;;;23.07;35.02
3812;BME280;1921;49.368;11.068;2023-04-21T11:16:04;97178.19;;;23.50;34.94
3812;BME280;1921;49.368;11.068;2023-04-21T11:18:36;97182.09;;;21.05;38.39
3812;BME280;1921;49.368;11.068;2023-04-21T11:21:21;97206.97;;;20.98;39.77
3812;BME280;1921;49.368;11.068;2023-04-21T11:23:52;97190.28;;;21.88;36.91
3812;BME280;1921;49.368;11.068;2023-04-21T11:26:32;97212.00;;;21.74;38.10
3812;BME280;1921;49.368;11.068;2023-04-21T11:29:03;97188.53;;;20.77;39.67
3812;BME280;1921;49.368;11.068;2023-04-21T11:31:31;97190.00;;;19.31;40.83
3812;BME280;1921;49.368;11.068;2023-04-21T11:33:59;97191.63;;;19.71;40.99
3812;BME280;1921;49.368;11.068;2023-04-21T11:36:25;97212.31;;;19.96;40.75
3812;BME280;1921;49.368;11.068;2023-04-21T11:38:52;97213.69;;;20.47;40.67
3812;BME280;1921;49.368;11.068;2023-04-21T11:41:22;97155.56;;;21.42;37.65
3812;BME280;1921;49.368;11.068;2023-04-21T11:43:49;97200.75;;;21.57;36.41
3812;BME280;1921;49.368;11.068;2023-04-21T11:49:01;97192.28;;;22.18;35.49
3812;BME280;1921;49.368;11.068;2023-04-21T11:51:40;97162.84;;;23.01;33.77
3812;BME280;1921;49.368;11.068;2023-04-21T11:54:09;97154.84;;;22.35;35.61
3812;BME280;1921;49.368;11.068;2023-04-21T11:56:37;97149.03;;;22.99;33.41
3812;BME280;1921;49.368;11.068;2023-04-21T11:59:11;97176.13;;;23.21;33.96
3812;BME280;1921;49.368;11.068;2023-04-21T12:01:51;97173.00;;;20.58;37.51
3812;BME280;1921;49.368;11.068;2023-04-21T12:04:20;97148.91;;;19.23;39.19
3812;BME280;1921;49.368;11.068;2023-04-21T12:07:01;97157.41;;;19.86;38.73
3812;BME280;1921;49.368;11.068;2023-04-21T12:09:28;97164.22;;;21.74;35.54
3812;BME280;1921;49.368;11.068;2023-04-21T12:11:56;97174.53;;;22.64;33.46
3812;BME280;1921;49.368;11.068;2023-04-21T12:14:24;97104.06;;;22.67;32.54
3812;BME280;1921;49.368;11.068;2023-04-21T12:16:53;97153.84;;;21.68;34.09
3812;BME280;1921;49.368;11.068;2023-04-21T12:19:36;97164.94;;;22.38;34.28
3812;BME280;1921;49.368;11.068;2023-04-21T12:24:32;97117.13;;;22.63;32.28
3812;BME280;1921;49.368;11.068;2023-04-21T12:26:58;97169.53;;;22.88;33.10
3812;BME280;1921;49.368;11.068;2023-04-21T12:29:24;97130.16;;;22.44;33.21
3812;BME280;1921;49.368;11.068;2023-04-21T12:31:50;97179.81;;;23.41;31.07
3812;BME280;1921;49.368;11.068;2023-04-21T12:34:15;97160.50;;;23.84;30.84
3812;BME280;1921;49.368;11.068;2023-04-21T12:36:41;97123.19;;;23.89;30.51
3812;BME280;1921;49.368;11.068;2023-04-21T12:39:07;97149.50;;;24.01;31.53
3812;BME280;1921;49.368;11.068;2023-04-21T12:41:34;97151.00;;;23.58;31.46
3812;BME280;1921;49.368;11.068;2023-04-21T12:44:00;97179.56;;;24.12;31.03
3812;BME280;1921;49.368;11.068;2023-04-21T12:46:27;97166.13;;;24.37;30.87
3812;BME280;1921;49.368;11.068;2023-04-21T12:48:52;97126.28;;;23.62;31.56
3812;BME280;1921;49.368;11.068;2023-04-21T12:51:18;97141.81;;;22.38;33.90
3812;BME280;1921;49.368;11.068;2023-04-21T12:53:44;97107.28;;;22.99;30.89
3812;BME280;1921;49.368;11.068;2023-04-21T12:56:10;97116.94;;;23.65;31.39
3812;BME280;1921;49.368;11.068;2023-04-21T12:58:36;97151.06;;;24.12;30.36
3812;BME280;1921;49.368;11.068;2023-04-21T13:01:02;97131.97;;;24.39;29.85
3812;BME280;1921;49.368;11.068;2023-04-21T13:03:28;97155.25;;;24.68;29.90
3812;BME280;1921;49.368;11.068;2023-04-21T13:05:53;97146.66;;;24.71;30.15
3812;BME280;1921;49.368;11.068;2023-04-21T13:08:20;97097.53;;;24.48;28.72
3812;BME280;1921;49.368;11.068;2023-04-21T13:10:48;97133.03;;;25.07;28.61
3812;BME280;1921;49.368;11.068;2023-04-21T13:13:14;97121.47;;;25.16;29.21
3812;BME280;1921;49.368;11.068;2023-04-21T13:15:39;97093.13;;;25.20;28.58
3812;BME280;1921;49.368;11.068;2023-04-21T13:18:06;97118.34;;;25.33;28.40
3812;BME280;1921;49.368;11.068;2023-04-21T13:20:32;97125.34;;;25.29;28.04
3812;BME280;1921;49.368;11.068;2023-04-21T13:22:57;97174.81;;;25.93;28.23
3812;BME280;1921;49.368;11.068;2023-04-21T13:25:23;97155.84;;;25.23;28.54
3812;BME280;1921;49.368;11.068;2023-04-21T13:27:49;97174.34;;;25.38;27.19
3812;BME280;1921;49.368;11.068;2023-04-21T13:30:16;97083.50;;;24.37;28.78
3812;BME280;1921;49.368;11.068;2023-04-21T13:32:42;97137.94;;;24.21;29.82
3812;BME280;1921;49.368;11.068;2023-04-21T13:35:09;97103.84;;;23.79;29.32
3812;BME280;1921;49.368;11.068;2023-04-21T13:37:39;97118.41;;;23.92;28.70